Time;durP1;ratioP1;P1;durP2;ratioP2;P2;SDS_P1;SDS_P2;PMS_P1;PMS_P2;Temp;Humidity;BMP_temperature;BMP_pressure;BME280_temperature;BME280_humidity;BME280_pressure;Samples;Min_cycle;Max_cycle;Signal;HPM_P1;HPM_P2
2023/11/29 00:00:35;;;;;;;27.57;19.53;;;1.60;99.90;;;;;;5080618;28;20032;-75
2023/11/29 00:03:02;;;;;;;30.53;21.90;;;1.60;99.90;;;;;;5075767;28;20047;-74
2023/11/29 00:05:28;;;;;;;21.33;17.47;;;1.60;99.90;;;;;;5078545;27;20054;-74
2023/11/29 00:07:54;;;;;;;29.70;22.60;;;1.60;99.90;;;;;;5071677;28;20044;-73
2023/11/29 00:10:22;;;;;;;33.20;25.35;;;1.60;99.90;;;;;;5089964;28;20032;-74
2023/11/29 00:12:48;;;;;;;41.93;29.73;;;1.60;99.90;;;;;;5111377;27;20044;-73
2023/11/29 00:15:14;;;;;;;38.47;29.63;;;1.60;99.90;;;;;;5093266;28;20514;-74
2023/11/29 00:17:41;;;;;;;42.13;31.87;;;1.60;99.90;;;;;;5094865;27;20479;-73
2023/11/29 00:20:08;;;;;;;38.97;27.93;;;1.60;99.90;;;;;;5093574;28;20036;-74
2023/11/29 00:22:34;;;;;;;41.95;33.17;;;1.70;99.90;;;;;;5107316;27;20043;-73
2023/11/29 00:25:00;;;;;;;42.33;31.43;;;1.70;99.90;;;;;;5078471;28;20486;-73
2023/11/29 00:27:27;;;;;;;43.03;30.67;;;1.70;99.90;;;;;;5073512;28;20032;-73
2023/11/29 00:29:53;;;;;;;44.13;32.20;;;1.70;99.90;;;;;;5096341;28;20035;-74
2023/11/29 00:32:19;;;;;;;45.10;33.83;;;1.70;99.90;;;;;;5066064;28;20498;-74
2023/11/29 00:34:46;;;;;;;45.20;33.97;;;1.70;99.90;;;;;;5085182;28;20040;-73
2023/11/29 00:37:12;;;;;;;45.93;34.40;;;1.70;99.90;;;;;;5072827;28;20491;-74
2023/11/29 00:39:39;;;;;;;51.97;37.27;;;1.70;99.90;;;;;;5090919;28;20032;-72
2023/11/29 00:42:05;;;;;;;46.87;35.20;;;1.80;99.90;;;;;;5071686;28;20042;-73
2023/11/29 00:44:32;;;;;;;40.75;30.13;;;1.70;99.90;;;;;;5074387;28;20047;-74
2023/11/29 00:46:59;;;;;;;43.83;32.77;;;1.80;99.90;;;;;;5078475;28;20143;-74
2023/11/29 00:49:25;;;;;;;46.27;34.47;;;1.80;99.90;;;;;;5069520;28;20489;-75
2023/11/29 00:51:52;;;;;;;41.27;30.70;;;1.80;99.90;;;;;;5074015;28;20039;-73
2023/11/29 00:54:19;;;;;;;38.63;30.73;;;1.80;99.90;;;;;;5067354;28;20040;-74
2023/11/29 00:56:46;;;;;;;39.40;29.20;;;1.80;99.90;;;;;;5075290;28;20036;-73
2023/11/29 00:59:12;;;;;;;39.63;29.97;;;1.90;99.90;;;;;;5069521;28;20031;-73
2023/11/29 01:01:38;;;;;;;36.25;28.35;;;1.90;99.90;;;;;;5077094;27;20039;-74
2023/11/29 01:04:05;;;;;;;35.40;27.37;;;1.90;99.90;;;;;;5068252;28;20039;-72
2023/11/29 01:06:31;;;;;;;32.23;24.63;;;1.90;99.90;;;;;;5070053;28;20506;-74
2023/11/29 01:08:58;;;;;;;34.90;27.35;;;1.80;99.90;;;;;;5082693;28;20032;-74
2023/11/29 01:11:24;;;;;;;35.20;26.60;;;1.70;99.90;;;;;;5080620;28;20039;-73
2023/11/29 01:13:52;;;;;;;37.43;27.33;;;1.60;99.90;;;;;;5052224;28;20035;-75
2023/11/29 01:16:18;;;;;;;32.13;24.80;;;1.50;99.90;;;;;;5075365;28;20031;-75
2023/11/29 01:18:44;;;;;;;39.23;29.37;;;1.50;99.90;;;;;;5079107;28;20031;-73
2023/11/29 01:21:12;;;;;;;40.47;31.27;;;1.50;99.90;;;;;;5068355;28;20054;-74
2023/11/29 01:23:39;;;;;;;38.60;29.63;;;1.50;99.90;;;;;;5090668;28;20390;-75
2023/11/29 01:26:05;;;;;;;37.47;28.67;;;1.50;99.90;;;;;;5074734;28;20027;-75
2023/11/29 01:28:32;;;;;;;37.30;27.20;;;1.60;99.90;;;;;;5069674;28;20035;-74
2023/11/29 01:30:58;;;;;;;43.03;31.20;;;1.60;99.90;;;;;;5084389;28;20032;-73
2023/11/29 01:33:24;;;;;;;41.10;29.40;;;1.70;99.90;;;;;;5089127;28;20055;-76
2023/11/29 01:35:51;;;;;;;41.08;30.67;;;1.70;99.90;;;;;;5091413;28;20038;-74
2023/11/29 01:38:18;;;;;;;40.67;32.67;;;1.80;99.90;;;;;;5110279;27;20028;-74
2023/11/29 01:40:44;;;;;;;46.97;35.67;;;1.80;99.90;;;;;;5093659;28;20043;-74
2023/11/29 01:43:10;;;;;;;48.43;37.37;;;1.80;99.90;;;;;;5067449;28;20054;-74
2023/11/29 01:45:37;;;;;;;47.47;35.78;;;1.80;99.90;;;;;;5058679;28;20044;-75
2023/11/29 01:48:04;;;;;;;52.75;39.08;;;1.90;99.90;;;;;;5051160;28;20102;-74
2023/11/29 01:50:35;;;;;;;47.00;36.38;;;1.90;99.90;;;;;;5079821;28;20293;-74
2023/11/29 01:53:02;;;;;;;47.67;37.67;;;1.90;99.90;;;;;;5077194;28;20039;-74
2023/11/29 01:55:28;;;;;;;47.22;35.63;;;1.90;99.90;;;;;;5071756;28;20044;-75
2023/11/29 01:57:57;;;;;;;48.13;37.47;;;1.90;99.90;;;;;;5065291;28;20482;-75
2023/11/29 02:00:23;;;;;;;50.63;38.03;;;2.00;99.90;;;;;;5109443;27;20027;-74
2023/11/29 02:02:50;;;;;;;47.37;36.07;;;2.00;99.90;;;;;;5067548;28;20044;-72
2023/11/29 02:05:16;;;;;;;50.80;37.50;;;2.00;99.90;;;;;;5078469;28;20036;-73
2023/11/29 02:07:43;;;;;;;44.90;32.33;;;2.00;99.90;;;;;;5067983;28;20044;-74
2023/11/29 02:10:10;;;;;;;40.38;30.50;;;2.00;99.90;;;;;;5090630;28;20406;-75
2023/11/29 02:12:36;;;;;;;41.60;30.15;;;2.00;99.90;;;;;;5070567;28;20498;-75
2023/11/29 02:15:03;;;;;;;38.63;27.75;;;2.00;99.90;;;;;;5061179;28;20043;-75
2023/11/29 02:17:32;;;;;;;34.40;25.97;;;2.00;99.90;;;;;;5080375;28;20028;-73
2023/11/29 02:19:59;;;;;;;30.60;25.43;;;2.10;99.90;;;;;;5090294;28;20035;-75
2023/11/29 02:22:27;;;;;;;27.70;22.77;;;2.10;99.90;;;;;;5103615;27;20406;-75
2023/11/29 02:24:54;;;;;;;28.87;23.77;;;2.10;99.90;;;;;;5068572;28;20032;-74
2023/11/29 02:27:20;;;;;;;33.63;26.57;;;2.10;99.90;;;;;;5094894;28;20034;-73
2023/11/29 02:29:47;;;;;;;33.95;27.10;;;2.10;99.90;;;;;;5063508;28;20040;-74
2023/11/29 02:32:13;;;;;;;30.27;25.25;;;2.10;99.90;;;;;;5092328;28;20036;-72
2023/11/29 02:34:39;;;;;;;30.77;25.43;;;2.10;99.90;;;;;;5062443;28;20053;-73
2023/11/29 02:37:06;;;;;;;26.37;23.10;;;2.10;99.90;;;;;;5081347;28;20047;-74
2023/11/29 02:39:32;;;;;;;26.27;22.70;;;2.10;99.90;;;;;;5079056;28;20395;-74
2023/11/29 02:41:59;;;;;;;29.37;24.57;;;2.10;99.90;;;;;;5077780;28;20498;-73
2023/11/29 02:44:25;;;;;;;32.40;26.50;;;2.10;99.90;;;;;;5074297;28;20035;-75
2023/11/29 02:46:52;;;;;;;37.47;26.95;;;2.10;99.90;;;;;;5072551;28;20065;-75
2023/11/29 02:49:18;;;;;;;35.45;27.40;;;2.10;99.90;;;;;;5083099;28;20035;-74
2023/11/29 02:51:44;;;;;;;33.53;25.87;;;2.10;99.90;;;;;;5061156;28;20291;-72
2023/11/29 02:54:11;;;;;;;34.30;24.63;;;2.10;99.90;;;;;;5093677;28;20059;-76
2023/11/29 02:56:37;;;;;;;29.45;23.67;;;2.10;99.90;;;;;;5070740;28;20407;-75
2023/11/29 02:59:03;;;;;;;31.93;25.30;;;2.10;99.90;;;;;;5075526;28;20058;-75
2023/11/29 03:01:29;;;;;;;32.85;26.02;;;2.10;99.90;;;;;;5073566;28;20032;-75
2023/11/29 03:03:56;;;;;;;32.17;25.73;;;2.20;99.90;;;;;;5098459;27;20032;-75
2023/11/29 03:06:22;;;;;;;34.07;27.50;;;2.10;99.90;;;;;;5072801;28;20031;-74
2023/11/29 03:08:48;;;;;;;38.35;25.73;;;2.10;99.90;;;;;;5067044;28;20036;-75
2023/11/29 03:11:15;;;;;;;33.15;26.80;;;2.10;99.90;;;;;;5083184;28;20463;-75
2023/11/29 03:13:41;;;;;;;35.63;29.10;;;2.10;99.90;;;;;;5087392;28;20055;-75
2023/11/29 03:16:08;;;;;;;37.50;28.10;;;2.20;99.90;;;;;;5058524;27;20023;-74
2023/11/29 03:18:34;;;;;;;36.78;26.98;;;2.10;99.90;;;;;;5082318;28;20036;-75
2023/11/29 03:21:00;;;;;;;36.13;28.45;;;2.20;99.90;;;;;;5078986;28;20608;-74
2023/11/29 03:23:27;;;;;;;42.60;31.87;;;2.20;99.90;;;;;;5067162;28;20035;-75
2023/11/29 03:25:53;;;;;;;39.83;32.00;;;2.20;99.90;;;;;;5055821;28;20059;-75
2023/11/29 03:28:20;;;;;;;50.33;34.65;;;2.10;99.90;;;;;;5079174;28;20049;-75
2023/11/29 03:30:46;;;;;;;36.38;28.48;;;2.10;99.90;;;;;;5072529;28;20047;-75
2023/11/29 03:33:13;;;;;;;39.60;30.13;;;2.10;99.90;;;;;;5076136;28;20053;-72
2023/11/29 03:35:41;;;;;;;39.70;33.37;;;2.10;99.90;;;;;;5062077;28;20036;-74
2023/11/29 03:38:07;;;;;;;43.70;33.45;;;2.10;99.90;;;;;;5107355;27;20483;-75
2023/11/29 03:40:33;;;;;;;48.90;37.43;;;2.10;99.90;;;;;;5084383;28;20035;-75
2023/11/29 03:43:00;;;;;;;42.65;33.67;;;2.10;99.90;;;;;;5066206;28;20044;-76
2023/11/29 03:45:27;;;;;;;43.43;33.73;;;2.10;99.90;;;;;;5108279;27;20024;-75
2023/11/29 03:47:54;;;;;;;47.97;35.33;;;2.10;99.90;;;;;;5074679;28;20040;-77
2023/11/29 03:50:20;;;;;;;46.00;35.35;;;2.00;99.90;;;;;;5073245;28;20392;-73
2023/11/29 03:52:47;;;;;;;43.17;35.07;;;2.00;99.90;;;;;;5079067;28;20074;-74
2023/11/29 03:55:13;;;;;;;38.57;29.97;;;2.00;99.90;;;;;;5082385;28;20504;-76
2023/11/29 03:57:39;;;;;;;45.78;32.47;;;2.00;99.90;;;;;;5072454;28;20036;-76
2023/11/29 04:00:07;;;;;;;51.47;38.07;;;2.00;99.90;;;;;;5058231;28;20039;-76
2023/11/29 04:02:33;;;;;;;44.87;34.97;;;2.00;99.90;;;;;;5078711;28;20485;-75
2023/11/29 04:05:00;;;;;;;47.40;35.45;;;2.00;99.90;;;;;;5070408;28;20035;-76
2023/11/29 04:07:26;;;;;;;46.08;33.72;;;2.00;99.90;;;;;;5078596;28;20109;-77
2023/11/29 04:09:52;;;;;;;50.35;35.65;;;2.00;99.90;;;;;;5091444;28;20048;-75
2023/11/29 04:12:19;;;;;;;49.00;35.03;;;2.00;99.90;;;;;;5068909;28;20028;-75
2023/11/29 04:14:45;;;;;;;50.55;37.65;;;2.00;99.90;;;;;;5093024;27;20510;-76
2023/11/29 04:17:11;;;;;;;53.42;36.78;;;2.00;99.90;;;;;;5082275;28;20474;-76
2023/11/29 04:19:39;;;;;;;49.30;36.23;;;2.10;99.90;;;;;;5091565;27;20655;-74
2023/11/29 04:22:06;;;;;;;48.13;33.80;;;2.00;99.90;;;;;;5055322;28;20031;-75
2023/11/29 04:24:33;;;;;;;47.63;36.27;;;2.00;99.90;;;;;;5075724;28;20043;-76
2023/11/29 04:26:59;;;;;;;47.28;34.47;;;2.00;99.90;;;;;;5058168;28;20039;-73
2023/11/29 04:29:27;;;;;;;45.90;34.67;;;2.00;99.90;;;;;;5108125;27;20036;-76
2023/11/29 04:31:54;;;;;;;43.97;32.75;;;2.00;99.90;;;;;;5074375;28;20039;-73
2023/11/29 04:34:21;;;;;;;47.40;33.22;;;2.00;99.90;;;;;;5078684;28;20035;-76
2023/11/29 04:36:50;;;;;;;42.03;29.75;;;2.00;99.90;;;;;;5076568;28;20481;-74
2023/11/29 04:39:18;;;;;;;43.15;31.30;;;2.10;99.90;;;;;;5062697;28;20028;-75
2023/11/29 04:41:44;;;;;;;40.00;27.97;;;2.00;99.90;;;;;;5078018;28;20260;-75
2023/11/29 04:44:10;;;;;;;39.90;29.87;;;2.10;99.90;;;;;;5078005;28;20043;-75
2023/11/29 04:46:37;;;;;;;42.83;29.23;;;2.10;99.90;;;;;;5076740;28;20039;-75
2023/11/29 04:49:03;;;;;;;39.17;27.73;;;2.10;99.90;;;;;;5109582;27;20034;-75
2023/11/29 04:51:29;;;;;;;38.17;27.92;;;2.10;99.90;;;;;;5077696;28;20035;-75
2023/11/29 04:53:56;;;;;;;46.72;31.23;;;2.10;99.90;;;;;;5061186;28;20078;-73
2023/11/29 04:56:23;;;;;;;40.47;28.30;;;2.20;99.90;;;;;;5069220;28;20031;-75
2023/11/29 04:58:49;;;;;;;45.70;29.88;;;2.20;99.90;;;;;;5078944;28;20027;-77
2023/11/29 05:01:15;;;;;;;40.10;27.40;;;2.20;99.90;;;;;;5067396;28;20043;-76
2023/11/29 05:03:42;;;;;;;38.40;27.13;;;2.30;99.90;;;;;;5079830;28;20039;-74
2023/11/29 05:06:12;;;;;;;42.28;28.90;;;2.30;99.90;;;;;;5094485;28;20023;-75
2023/11/29 05:08:38;;;;;;;36.73;25.73;;;2.20;99.90;;;;;;5095540;27;20028;-73
2023/11/29 05:11:05;;;;;;;40.05;27.05;;;2.20;99.90;;;;;;5113763;27;20047;-75
2023/11/29 05:13:32;;;;;;;44.33;27.75;;;2.10;99.90;;;;;;5092141;28;20385;-76
2023/11/29 05:15:58;;;;;;;41.57;27.50;;;2.10;99.90;;;;;;5097669;27;20020;-76
2023/11/29 05:18:24;;;;;;;38.43;25.77;;;2.10;99.90;;;;;;5084000;28;20455;-72
2023/11/29 05:20:51;;;;;;;34.90;23.53;;;2.20;99.90;;;;;;5054564;28;20047;-76
2023/11/29 05:23:17;;;;;;;36.23;22.87;;;2.20;99.90;;;;;;5078877;28;20493;-73
2023/11/29 05:25:44;;;;;;;39.70;23.77;;;2.10;99.90;;;;;;5092608;28;20458;-75
2023/11/29 05:28:10;;;;;;;33.45;23.08;;;2.10;99.90;;;;;;5076275;28;20047;-76
2023/11/29 05:30:36;;;;;;;34.47;22.80;;;2.10;99.90;;;;;;5091337;28;20044;-76
2023/11/29 05:33:07;;;;;;;37.50;26.02;;;2.10;99.90;;;;;;5075810;28;20062;-76
2023/11/29 05:35:33;;;;;;;33.00;22.40;;;2.10;99.90;;;;;;5079124;28;20035;-76
2023/11/29 05:37:59;;;;;;;34.58;24.20;;;2.10;99.90;;;;;;5092500;28;20040;-76
2023/11/29 05:40:26;;;;;;;36.05;23.83;;;2.20;99.90;;;;;;5083649;28;20035;-75
2023/11/29 05:42:52;;;;;;;35.37;23.57;;;2.20;99.90;;;;;;5080234;28;20036;-77
2023/11/29 05:45:19;;;;;;;38.27;24.53;;;2.20;99.90;;;;;;5068540;28;20031;-73
2023/11/29 05:47:46;;;;;;;31.63;21.27;;;2.30;99.90;;;;;;5091218;28;20039;-75
2023/11/29 05:50:12;;;;;;;32.55;23.42;;;2.30;99.90;;;;;;5081878;28;20036;-76
2023/11/29 05:52:39;;;;;;;30.73;20.73;;;2.30;99.90;;;;;;5062299;28;20211;-72
2023/11/29 05:55:06;;;;;;;33.28;21.85;;;2.40;99.90;;;;;;5108016;27;20051;-76
2023/11/29 05:57:32;;;;;;;28.20;19.27;;;2.40;99.90;;;;;;5074896;28;20029;-76
2023/11/29 06:00:08;;;;;;;33.17;20.77;;;2.40;99.90;;;;;;5073506;28;20436;-75
2023/11/29 06:02:39;;;;;;;31.55;19.73;;;2.50;99.90;;;;;;5077550;28;20450;-75
2023/11/29 06:05:07;;;;;;;29.75;19.45;;;2.50;99.90;;;;;;5069704;28;20059;-74
2023/11/29 06:07:35;;;;;;;38.37;23.47;;;2.50;99.90;;;;;;5077971;28;20243;-75
2023/11/29 06:10:03;;;;;;;31.15;21.60;;;2.50;99.90;;;;;;5093960;28;20028;-73
2023/11/29 06:12:31;;;;;;;30.83;21.58;;;2.50;99.90;;;;;;5078027;28;20035;-75
2023/11/29 06:14:57;;;;;;;38.13;23.90;;;2.50;99.90;;;;;;5077321;28;20418;-75
2023/11/29 06:17:23;;;;;;;32.72;19.95;;;2.50;99.90;;;;;;5079432;28;20028;-75
2023/11/29 06:19:50;;;;;;;32.70;19.77;;;2.50;99.90;;;;;;5077505;28;20036;-76
2023/11/29 06:22:17;;;;;;;37.05;23.48;;;2.50;99.90;;;;;;5069022;28;20481;-77
2023/11/29 06:24:43;;;;;;;28.52;20.38;;;2.50;99.90;;;;;;5074388;28;20039;-75
2023/11/29 06:27:10;;;;;;;31.52;20.55;;;2.50;99.90;;;;;;5074041;28;20441;-75
2023/11/29 06:29:36;;;;;;;33.95;21.15;;;2.50;99.90;;;;;;5076222;28;20027;-75
2023/11/29 06:32:03;;;;;;;31.52;19.80;;;2.50;99.90;;;;;;5096036;28;20035;-75
2023/11/29 06:34:29;;;;;;;29.00;19.40;;;2.60;99.90;;;;;;5058564;28;20457;-75
2023/11/29 06:36:55;;;;;;;30.73;19.40;;;2.60;99.90;;;;;;5066256;28;20478;-76
2023/11/29 06:39:22;;;;;;;26.13;17.75;;;2.60;99.90;;;;;;5079389;28;20036;-73
2023/11/29 06:41:48;;;;;;;24.55;15.80;;;2.60;99.90;;;;;;5076277;28;20036;-74
2023/11/29 06:44:14;;;;;;;26.95;15.68;;;2.60;99.90;;;;;;5094681;28;20044;-77
2023/11/29 06:46:41;;;;;;;23.27;13.60;;;2.60;99.90;;;;;;5090591;28;20389;-73
2023/11/29 06:49:09;;;;;;;21.35;12.35;;;2.60;99.90;;;;;;5056251;28;20042;-75
2023/11/29 06:51:38;;;;;;;18.90;10.93;;;2.60;99.90;;;;;;5073930;28;20051;-75
2023/11/29 06:54:05;;;;;;;22.80;11.07;;;2.60;99.90;;;;;;5079225;28;20040;-75
2023/11/29 06:56:32;;;;;;;14.43;8.87;;;2.60;99.90;;;;;;5098090;28;20125;-76
2023/11/29 06:58:58;;;;;;;13.20;6.60;;;2.60;99.90;;;;;;5071900;28;20501;-75
2023/11/29 07:01:25;;;;;;;10.00;5.50;;;2.70;99.90;;;;;;5076424;28;20032;-75
2023/11/29 07:03:51;;;;;;;9.93;3.40;;;2.70;99.90;;;;;;5074308;28;20427;-76
2023/11/29 07:06:23;;;;;;;5.85;2.50;;;2.70;99.90;;;;;;5066925;28;20398;-76
2023/11/29 07:08:50;;;;;;;6.35;2.08;;;2.70;99.90;;;;;;5067776;28;20027;-76
2023/11/29 07:11:16;;;;;;;4.78;1.52;;;2.60;99.90;;;;;;5075970;28;20035;-74
2023/11/29 07:13:44;;;;;;;6.97;1.77;;;2.50;99.90;;;;;;5066321;28;20032;-75
2023/11/29 07:16:10;;;;;;;6.53;1.42;;;2.50;99.90;;;;;;5080826;27;20031;-77
2023/11/29 07:18:39;;;;;;;6.07;1.77;;;2.60;99.90;;;;;;5073844;28;20039;-75
2023/11/29 07:21:06;;;;;;;4.72;1.30;;;2.60;99.90;;;;;;5096678;28;20039;-75
2023/11/29 07:23:34;;;;;;;3.75;1.02;;;2.60;99.90;;;;;;5080982;28;20043;-76
2023/11/29 07:26:00;;;;;;;4.10;1.15;;;2.70;99.90;;;;;;5093196;28;20367;-75
2023/11/29 07:28:27;;;;;;;4.63;0.90;;;2.60;99.90;;;;;;5093647;28;20683;-75
2023/11/29 07:30:53;;;;;;;9.13;1.23;;;2.60;99.90;;;;;;5095281;27;20039;-74
2023/11/29 07:33:19;;;;;;;4.60;0.88;;;2.60;99.90;;;;;;5078947;28;20039;-73
2023/11/29 07:35:46;;;;;;;4.07;1.00;;;2.70;99.90;;;;;;5070605;28;20059;-75
2023/11/29 07:38:12;;;;;;;5.53;1.30;;;2.70;99.90;;;;;;5097966;27;20035;-75
2023/11/29 07:40:38;;;;;;;6.03;1.25;;;2.70;99.90;;;;;;5075762;28;20491;-75
2023/11/29 07:43:04;;;;;;;6.07;1.50;;;2.70;99.90;;;;;;5069629;28;20452;-75
2023/11/29 07:45:31;;;;;;;4.38;1.20;;;2.60;99.90;;;;;;5093330;28;20035;-75
2023/11/29 07:47:57;;;;;;;6.78;1.13;;;2.60;99.90;;;;;;5075054;28;20032;-75
2023/11/29 07:50:24;;;;;;;4.10;1.20;;;2.50;99.90;;;;;;5092181;28;20669;-75
2023/11/29 07:52:51;;;;;;;2.60;0.90;;;2.50;99.90;;;;;;5071467;28;20505;-75
2023/11/29 07:55:17;;;;;;;7.07;0.85;;;2.40;99.90;;;;;;5091833;28;20065;-75
2023/11/29 07:57:45;;;;;;;6.03;1.30;;;2.40;99.90;;;;;;5078744;28;20034;-73
2023/11/29 08:00:12;;;;;;;6.20;1.20;;;2.40;99.90;;;;;;5076939;28;20040;-76
2023/11/29 08:02:41;;;;;;;4.30;1.20;;;2.40;99.90;;;;;;5092702;28;20039;-72
2023/11/29 08:05:07;;;;;;;5.00;1.30;;;2.40;99.90;;;;;;5085218;28;20040;-75
2023/11/29 08:07:34;;;;;;;4.40;1.13;;;2.40;99.90;;;;;;5074568;28;20487;-76
2023/11/29 08:10:03;;;;;;;5.03;1.25;;;2.40;99.90;;;;;;5086417;28;20035;-75
2023/11/29 08:12:30;;;;;;;6.55;1.23;;;2.50;99.90;;;;;;5091123;28;20039;-74
2023/11/29 08:14:57;;;;;;;2.47;1.08;;;2.60;99.90;;;;;;5070248;28;20039;-74
2023/11/29 08:17:23;;;;;;;8.23;1.42;;;2.70;99.90;;;;;;5072819;28;20032;-76
2023/11/29 08:19:49;;;;;;;4.33;1.40;;;2.80;99.90;;;;;;5075094;28;20047;-76
2023/11/29 08:22:15;;;;;;;6.50;1.60;;;3.00;99.90;;;;;;5078762;28;20047;-76
2023/11/29 08:24:42;;;;;;;8.55;1.88;;;3.20;99.90;;;;;;5072040;28;20039;-76
2023/11/29 08:27:09;;;;;;;10.43;2.08;;;3.30;99.90;;;;;;5093581;27;20036;-76
2023/11/29 08:29:35;;;;;;;6.97;3.10;;;3.30;99.90;;;;;;5086958;28;20038;-75
2023/11/29 08:32:02;;;;;;;6.70;2.53;;;3.30;99.90;;;;;;5076754;28;20028;-77
2023/11/29 08:34:28;;;;;;;7.57;2.20;;;3.20;99.90;;;;;;5090877;28;20036;-75
2023/11/29 08:36:56;;;;;;;6.63;2.30;;;3.10;99.90;;;;;;5071110;28;20058;-76
2023/11/29 08:39:23;;;;;;;12.00;2.97;;;3.10;99.90;;;;;;5074001;28;20062;-74
2023/11/29 08:41:49;;;;;;;8.50;2.80;;;3.10;99.90;;;;;;5058736;28;20036;-75
2023/11/29 08:44:16;;;;;;;9.43;2.65;;;3.00;99.90;;;;;;5090974;28;20040;-77
2023/11/29 08:46:42;;;;;;;5.18;2.50;;;3.00;99.90;;;;;;5051377;28;20406;-76
2023/11/29 08:49:08;;;;;;;7.40;2.90;;;2.90;99.90;;;;;;5077080;28;20043;-71
2023/11/29 08:51:35;;;;;;;5.43;2.90;;;2.90;99.90;;;;;;5047628;28;20028;-74
2023/11/29 08:54:01;;;;;;;6.35;2.78;;;2.90;99.90;;;;;;5080852;28;20047;-77
2023/11/29 08:56:27;;;;;;;6.78;3.22;;;2.80;99.90;;;;;;5079238;28;20066;-74
2023/11/29 08:58:55;;;;;;;5.60;3.67;;;2.80;99.90;;;;;;5092325;28;20032;-75
2023/11/29 09:01:21;;;;;;;10.07;3.90;;;2.80;99.90;;;;;;5068276;28;20040;-73
2023/11/29 09:03:48;;;;;;;9.15;3.47;;;2.90;99.90;;;;;;5079350;28;20051;-77
2023/11/29 09:06:15;;;;;;;10.38;5.50;;;2.90;99.90;;;;;;5072479;28;20034;-74
2023/11/29 09:08:42;;;;;;;11.27;4.00;;;2.90;99.90;;;;;;5093364;28;20039;-75
2023/11/29 09:11:09;;;;;;;7.97;4.25;;;2.90;99.90;;;;;;5077638;28;20517;-76
2023/11/29 09:13:36;;;;;;;11.80;5.75;;;3.00;99.90;;;;;;5063512;28;20054;-75
2023/11/29 09:16:05;;;;;;;11.30;4.82;;;3.00;99.90;;;;;;5056191;27;20505;-76
2023/11/29 09:18:31;;;;;;;12.60;4.60;;;3.00;99.90;;;;;;5070619;28;20027;-74
2023/11/29 09:20:59;;;;;;;8.77;4.67;;;3.10;99.90;;;;;;5061095;28;20063;-76
2023/11/29 09:23:25;;;;;;;7.75;4.03;;;3.10;99.90;;;;;;5071589;28;20425;-75
2023/11/29 09:25:52;;;;;;;10.75;4.50;;;3.10;99.90;;;;;;5075479;28;20363;-75
2023/11/29 09:28:19;;;;;;;9.65;4.40;;;3.20;99.90;;;;;;5071989;28;20040;-76
2023/11/29 09:30:45;;;;;;;9.35;4.93;;;3.30;99.90;;;;;;5093912;28;20462;-72
2023/11/29 09:33:12;;;;;;;8.98;4.72;;;3.40;99.90;;;;;;5082379;28;20059;-75
2023/11/29 09:35:38;;;;;;;7.40;4.57;;;3.40;99.90;;;;;;5070114;28;20036;-75
2023/11/29 09:38:05;;;;;;;7.50;5.07;;;3.50;99.90;;;;;;5091576;28;20043;-76
2023/11/29 09:40:32;;;;;;;7.30;4.70;;;3.60;99.90;;;;;;5092915;28;20036;-75
2023/11/29 09:42:58;;;;;;;11.63;5.53;;;3.80;99.90;;;;;;5081695;28;20032;-76
2023/11/29 09:45:28;;;;;;;9.15;5.20;;;4.00;99.90;;;;;;5077327;28;20062;-77
2023/11/29 09:47:57;;;;;;;7.20;3.13;;;4.20;99.90;;;;;;5075418;28;20054;-75
2023/11/29 09:50:25;;;;;;;4.07;3.20;;;4.50;99.90;;;;;;5071357;28;20031;-76
2023/11/29 09:52:52;;;;;;;4.97;2.13;;;4.80;99.90;;;;;;5102461;27;20024;-77
2023/11/29 09:55:18;;;;;;;3.67;2.35;;;5.00;99.90;;;;;;5088527;27;20043;-76
2023/11/29 09:57:45;;;;;;;5.50;2.10;;;5.10;99.90;;;;;;5073815;28;20047;-75
2023/11/29 10:00:14;;;;;;;4.80;1.85;;;5.10;99.90;;;;;;5071988;28;20036;-75
2023/11/29 10:02:41;;;;;;;5.95;1.92;;;5.10;99.90;;;;;;5081758;28;20036;-77
2023/11/29 10:05:08;;;;;;;3.45;2.05;;;5.00;99.90;;;;;;5076622;28;20039;-76
2023/11/29 10:07:35;;;;;;;3.22;1.55;;;4.90;99.90;;;;;;5081177;28;20046;-74
2023/11/29 10:10:05;;;;;;;2.22;2.00;;;4.90;99.90;;;;;;5079932;28;20051;-77
2023/11/29 10:12:32;;;;;;;4.57;2.15;;;4.80;99.90;;;;;;5095933;28;20035;-77
2023/11/29 10:14:58;;;;;;;4.95;2.13;;;5.00;99.90;;;;;;5080788;28;20031;-75
2023/11/29 10:17:27;;;;;;;3.58;2.25;;;5.20;99.90;;;;;;5084483;28;20755;-78
2023/11/29 10:19:56;;;;;;;5.68;2.47;;;5.30;99.90;;;;;;5077238;28;20043;-74
2023/11/29 10:22:24;;;;;;;4.07;2.53;;;5.50;99.90;;;;;;5076418;28;20031;-74
2023/11/29 10:24:51;;;;;;;3.85;2.10;;;5.70;99.90;;;;;;5077196;28;20048;-78
2023/11/29 10:27:22;;;;;;;5.95;2.05;;;5.70;99.90;;;;;;5078319;28;20058;-75
2023/11/29 10:29:48;;;;;;;5.05;2.70;;;5.60;99.90;;;;;;5101912;27;20040;-76
2023/11/29 10:32:17;;;;;;;4.35;2.17;;;5.50;99.90;;;;;;5081617;28;20032;-77
2023/11/29 10:34:46;;;;;;;4.10;2.30;;;5.40;99.90;;;;;;5078001;28;20305;-76
2023/11/29 10:37:13;;;;;;;5.47;2.20;;;5.30;99.90;;;;;;5074353;28;20040;-77
2023/11/29 10:39:41;;;;;;;4.85;2.50;;;5.30;99.90;;;;;;5091967;28;20028;-77
2023/11/29 10:42:09;;;;;;;4.50;2.35;;;5.20;99.90;;;;;;5073112;28;20039;-77
2023/11/29 10:44:40;;;;;;;6.55;3.22;;;5.20;99.90;;;;;;5075598;28;20410;-77
2023/11/29 10:47:34;;;;;;;5.80;2.50;;;5.10;99.90;;;;;;5081968;28;20038;-76
2023/11/29 10:50:02;;;;;;;5.50;2.65;;;5.00;99.90;;;;;;5084891;28;20035;-77
2023/11/29 10:52:29;;;;;;;4.00;2.38;;;5.00;99.90;;;;;;5094420;27;20051;-73
2023/11/29 10:54:55;;;;;;;4.35;2.80;;;5.00;99.90;;;;;;5068280;28;20051;-75
2023/11/29 10:57:45;;;;;;;8.45;3.42;;;4.90;99.90;;;;;;5074154;28;20040;-78
2023/11/29 11:00:15;;;;;;;4.07;2.38;;;4.90;99.90;;;;;;5094217;28;20415;-78
2023/11/29 11:02:44;;;;;;;3.47;2.08;;;4.80;99.90;;;;;;5077581;28;20047;-77
2023/11/29 11:05:10;;;;;;;4.38;2.80;;;4.80;99.90;;;;;;5075641;28;20043;-77
2023/11/29 11:07:45;;;;;;;6.22;2.83;;;4.80;99.90;;;;;;5071303;28;20495;-75
2023/11/29 11:10:17;;;;;;;4.97;1.90;;;4.70;99.90;;;;;;5072433;28;20048;-74
2023/11/29 11:12:44;;;;;;;3.20;1.90;;;4.70;99.90;;;;;;5092400;28;20526;-76
2023/11/29 11:15:24;;;;;;;4.63;1.85;;;4.50;99.90;;;;;;5072761;28;20039;-78
2023/11/29 11:18:05;;;;;;;5.32;2.05;;;4.40;99.90;;;;;;5069874;27;20035;-78
2023/11/29 11:20:43;;;;;;;7.63;1.92;;;4.30;99.90;;;;;;5063233;28;20044;-76
2023/11/29 11:23:17;;;;;;;4.43;1.50;;;4.20;99.90;;;;;;5064531;28;20035;-77
2023/11/29 11:25:44;;;;;;;5.03;2.22;;;4.10;99.90;;;;;;5076095;28;20044;-75
2023/11/29 11:28:27;;;;;;;5.55;1.65;;;4.00;99.90;;;;;;5082802;28;20032;-75
2023/11/29 11:30:54;;;;;;;5.72;1.80;;;4.10;99.90;;;;;;5081741;28;20047;-74
2023/11/29 11:33:22;;;;;;;6.82;3.13;;;4.20;99.90;;;;;;5078069;28;20403;-75
2023/11/29 11:35:48;;;;;;;8.35;4.53;;;4.30;99.90;;;;;;5067889;28;20040;-74
2023/11/29 11:38:14;;;;;;;5.55;3.25;;;4.40;99.90;;;;;;5071369;28;20032;-73
2023/11/29 11:40:41;;;;;;;6.22;2.70;;;4.50;99.90;;;;;;5084319;28;20027;-77
2023/11/29 11:43:09;;;;;;;4.90;2.70;;;4.70;99.90;;;;;;5079801;28;20442;-78
2023/11/29 11:45:39;;;;;;;7.05;2.25;;;4.80;99.90;;;;;;5089399;28;20032;-77
2023/11/29 11:48:06;;;;;;;4.25;2.00;;;4.90;99.90;;;;;;5066149;28;20024;-79
2023/11/29 11:50:32;;;;;;;3.55;1.67;;;5.00;99.90;;;;;;5094730;27;20054;-77
2023/11/29 11:52:59;;;;;;;5.07;2.03;;;5.00;99.90;;;;;;5092598;28;20039;-77
2023/11/29 11:55:27;;;;;;;4.82;2.33;;;4.90;99.90;;;;;;5083034;28;20532;-78
2023/11/29 11:57:56;;;;;;;4.55;2.42;;;4.90;99.90;;;;;;5075700;27;20054;-79
2023/11/29 12:00:23;;;;;;;3.03;1.60;;;5.00;99.90;;;;;;5079921;28;20042;-77
2023/11/29 12:02:50;;;;;;;4.38;1.80;;;5.00;99.90;;;;;;5079538;28;20027;-77
2023/11/29 12:05:17;;;;;;;4.53;2.13;;;5.00;99.90;;;;;;5065132;28;20044;-77
2023/11/29 12:07:44;;;;;;;4.40;2.00;;;5.00;99.90;;;;;;5074416;28;20036;-76
2023/11/29 12:10:13;;;;;;;3.55;1.83;;;5.00;99.90;;;;;;5075601;28;20610;-77
2023/11/29 12:12:40;;;;;;;4.05;1.67;;;5.00;99.90;;;;;;5092005;28;20043;-73
2023/11/29 12:15:12;;;;;;;3.45;1.73;;;5.00;99.90;;;;;;5093868;28;20044;-79
2023/11/29 12:17:39;;;;;;;4.95;2.03;;;4.90;99.90;;;;;;5069894;28;20511;-77
2023/11/29 12:20:06;;;;;;;4.03;2.13;;;4.90;99.90;;;;;;5085241;28;20039;-76
2023/11/29 12:22:33;;;;;;;6.35;2.63;;;4.90;99.90;;;;;;5078878;28;20040;-79
2023/11/29 12:25:00;;;;;;;4.53;1.98;;;4.90;99.90;;;;;;5079044;28;20036;-78
2023/11/29 12:27:27;;;;;;;2.78;1.58;;;5.00;99.90;;;;;;5056408;28;20036;-77
2023/11/29 12:29:58;;;;;;;3.95;1.92;;;5.00;99.90;;;;;;5091796;28;20035;-76
2023/11/29 12:32:28;;;;;;;3.97;2.15;;;5.10;99.90;;;;;;5062280;28;20031;-78
2023/11/29 12:34:58;;;;;;;7.07;3.10;;;5.10;99.90;;;;;;5081083;28;20044;-77
2023/11/29 12:37:27;;;;;;;6.13;2.92;;;5.10;99.90;;;;;;5064604;28;20027;-72
2023/11/29 12:39:57;;;;;;;4.90;3.33;;;5.20;99.90;;;;;;5061361;28;20039;-77
2023/11/29 12:42:24;;;;;;;7.68;3.05;;;5.30;99.90;;;;;;5097280;28;20047;-77
2023/11/29 12:44:51;;;;;;;9.40;4.18;;;5.40;99.90;;;;;;5081969;27;20039;-78